Time;durP1;ratioP1;P1;durP2;ratioP2;P2;SDS_P1;SDS_P2;PMS_P1;PMS_P2;Temp;Humidity;BMP_temperature;BMP_pressure;BME280_temperature;BME280_humidity;BME280_pressure;Samples;Min_cycle;Max_cycle;Signal;HPM_P1;HPM_P2
2021/07/09 00:02:43;;;;;;;8.35;5.82;;;;;;;;;;5114384;28;20036;-61
2021/07/09 00:05:10;;;;;;;8.27;5.40;;;;;;;;;;5095997;28;20483;-61
2021/07/09 00:07:36;;;;;;;8.02;5.68;;;;;;;;;;5095519;28;20040;-61
2021/07/09 00:10:02;;;;;;;10.48;5.57;;;;;;;;;;5095472;28;20032;-61
2021/07/09 00:12:28;;;;;;;7.57;5.50;;;;;;;;;;5093360;28;20036;-63
2021/07/09 00:14:54;;;;;;;7.93;5.30;;;;;;;;;;5113722;28;20106;-61
2021/07/09 00:17:20;;;;;;;8.13;5.63;;;;;;;;;;5095571;28;20066;-61
2021/07/09 00:19:46;;;;;;;7.93;5.50;;;;;;;;;;5113792;28;20031;-61
2021/07/09 00:22:12;;;;;;;7.63;5.72;;;;;;;;;;5113719;28;20038;-61
2021/07/09 00:24:39;;;;;;;8.60;5.68;;;;;;;;;;5111688;28;20081;-62
2021/07/09 00:27:06;;;;;;;8.70;5.93;;;;;;;;;;5113515;28;20376;-61
2021/07/09 00:29:32;;;;;;;8.77;6.05;;;;;;;;;;5095110;28;20063;-61
2021/07/09 00:31:58;;;;;;;8.80;6.63;;;;;;;;;;5095113;28;20080;-62
2021/07/09 00:34:24;;;;;;;8.57;5.97;;;;;;;;;;5113551;28;20031;-61
2021/07/09 00:36:50;;;;;;;9.48;6.57;;;;;;;;;;5111283;28;20035;-61
2021/07/09 00:39:16;;;;;;;9.80;5.90;;;;;;;;;;5113637;28;20195;-61
2021/07/09 00:41:42;;;;;;;9.18;6.25;;;;;;;;;;5113722;28;20031;-61
2021/07/09 00:44:08;;;;;;;10.65;6.20;;;;;;;;;;5095359;28;20032;-63
2021/07/09 00:46:39;;;;;;;8.05;5.95;;;;;;;;;;5093630;28;20063;-63
2021/07/09 00:49:06;;;;;;;8.00;5.78;;;;;;;;;;5095056;28;20376;-61
2021/07/09 00:51:32;;;;;;;8.98;6.10;;;;;;;;;;5094983;28;20122;-61
2021/07/09 00:53:59;;;;;;;8.32;6.20;;;;;;;;;;5095019;28;20088;-61
2021/07/09 00:56:25;;;;;;;7.90;6.18;;;;;;;;;;5113063;28;20073;-61
2021/07/09 00:58:52;;;;;;;8.32;6.00;;;;;;;;;;5092787;28;20156;-61
2021/07/09 01:01:18;;;;;;;8.93;6.35;;;;;;;;;;5093981;28;20039;-61
2021/07/09 01:03:44;;;;;;;9.02;6.25;;;;;;;;;;5112774;28;20024;-61
2021/07/09 01:06:11;;;;;;;8.85;6.32;;;;;;;;;;5094782;28;20035;-61
2021/07/09 01:08:37;;;;;;;8.75;6.70;;;;;;;;;;5094275;28;20028;-61
2021/07/09 01:11:03;;;;;;;8.75;6.53;;;;;;;;;;5110712;28;20024;-63
2021/07/09 01:13:29;;;;;;;9.75;7.03;;;;;;;;;;5112922;28;20235;-61
2021/07/09 01:15:56;;;;;;;8.90;6.70;;;;;;;;;;5094263;28;20047;-61
2021/07/09 01:18:22;;;;;;;8.43;6.43;;;;;;;;;;5112884;28;20023;-61
2021/07/09 01:20:48;;;;;;;9.07;6.28;;;;;;;;;;5094327;28;20027;-61
2021/07/09 01:23:16;;;;;;;8.93;6.40;;;;;;;;;;5092065;28;20528;-61
2021/07/09 01:25:42;;;;;;;9.32;7.35;;;;;;;;;;5094140;28;20016;-61
2021/07/09 01:28:08;;;;;;;8.85;6.55;;;;;;;;;;5112367;28;20023;-61
2021/07/09 01:30:36;;;;;;;9.15;6.55;;;;;;;;;;5094197;28;20031;-61
2021/07/09 01:33:02;;;;;;;9.40;6.70;;;;;;;;;;5093163;28;20024;-67
2021/07/09 01:35:29;;;;;;;8.95;6.70;;;;;;;;;;5093068;28;20028;-62
2021/07/09 01:38:00;;;;;;;9.73;6.93;;;;;;;;;;5093919;28;20144;-61
2021/07/09 01:40:27;;;;;;;8.50;6.50;;;;;;;;;;5093952;28;20032;-61
2021/07/09 01:42:53;;;;;;;9.38;7.07;;;;;;;;;;5112392;28;20029;-61
2021/07/09 01:45:20;;;;;;;10.00;7.38;;;;;;;;;;5091941;28;20036;-61
2021/07/09 01:47:46;;;;;;;12.10;6.40;;;;;;;;;;5112527;28;20168;-61
2021/07/09 01:50:12;;;;;;;11.63;7.55;;;;;;;;;;5094041;28;20038;-61
2021/07/09 01:52:38;;;;;;;9.25;7.22;;;;;;;;;;5112123;28;20045;-61
2021/07/09 01:55:06;;;;;;;10.13;7.25;;;;;;;;;;5110203;28;20030;-62
2021/07/09 01:57:32;;;;;;;10.38;6.90;;;;;;;;;;5111760;28;20110;-61
2021/07/09 02:00:00;;;;;;;10.30;7.43;;;;;;;;;;5111866;28;20019;-61
2021/07/09 02:02:26;;;;;;;10.13;7.03;;;;;;;;;;5093654;28;20031;-61
2021/07/09 02:04:54;;;;;;;9.80;7.15;;;;;;;;;;5093444;28;20050;-61
2021/07/09 02:07:21;;;;;;;10.45;7.65;;;;;;;;;;5091253;28;20490;-62
2021/07/09 02:09:48;;;;;;;11.50;7.85;;;;;;;;;;5093646;28;20168;-61
2021/07/09 02:12:15;;;;;;;13.77;8.30;;;;;;;;;;5111719;28;20019;-61
2021/07/09 02:14:42;;;;;;;10.00;7.38;;;;;;;;;;5093378;28;20187;-61
2021/07/09 02:17:09;;;;;;;11.13;7.38;;;;;;;;;;5111429;28;20047;-61
2021/07/09 02:19:35;;;;;;;10.38;7.50;;;;;;;;;;5091367;28;20045;-61
2021/07/09 02:22:02;;;;;;;11.35;7.55;;;;;;;;;;5093476;28;20031;-61
2021/07/09 02:24:28;;;;;;;10.02;7.22;;;;;;;;;;5093179;28;20019;-61
2021/07/09 02:26:54;;;;;;;10.68;7.05;;;;;;;;;;5092832;28;20072;-61
2021/07/09 02:29:20;;;;;;;9.65;6.70;;;;;;;;;;5092668;28;20023;-68
2021/07/09 02:31:46;;;;;;;8.90;6.20;;;;;;;;;;5109752;28;20031;-61
2021/07/09 02:34:12;;;;;;;8.55;6.10;;;;;;;;;;5111333;28;20027;-61
2021/07/09 02:36:38;;;;;;;8.38;5.78;;;;;;;;;;5110866;28;20031;-62
2021/07/09 02:39:04;;;;;;;7.80;5.95;;;;;;;;;;5111305;28;20098;-61
2021/07/09 02:41:30;;;;;;;9.15;5.93;;;;;;;;;;5092380;28;20024;-68
2021/07/09 02:43:56;;;;;;;7.35;5.15;;;;;;;;;;5091182;28;20597;-62
2021/07/09 02:46:22;;;;;;;7.25;4.97;;;;;;;;;;5110955;28;20235;-62
2021/07/09 02:48:48;;;;;;;8.15;4.97;;;;;;;;;;5092773;28;20121;-61
2021/07/09 02:51:14;;;;;;;8.25;4.38;;;;;;;;;;5092719;28;20118;-61
2021/07/09 02:53:40;;;;;;;7.93;4.43;;;;;;;;;;5092485;28;20080;-61
2021/07/09 02:56:06;;;;;;;8.32;5.00;;;;;;;;;;5108496;28;20046;-62
2021/07/09 02:58:32;;;;;;;7.35;4.88;;;;;;;;;;5110703;28;20573;-61
2021/07/09 03:00:58;;;;;;;7.93;4.72;;;;;;;;;;5092466;28;20031;-61
2021/07/09 03:03:24;;;;;;;7.80;4.57;;;;;;;;;;5110503;28;20015;-61
2021/07/09 03:05:51;;;;;;;7.28;4.60;;;;;;;;;;5092587;28;20035;-62
2021/07/09 03:08:17;;;;;;;7.07;4.72;;;;;;;;;;5090564;28;20049;-62
2021/07/09 03:10:42;;;;;;;6.40;4.20;;;;;;;;;;5111036;28;20031;-62
2021/07/09 03:13:09;;;;;;;7.15;4.25;;;;;;;;;;5110420;28;20398;-61
2021/07/09 03:15:35;;;;;;;7.22;4.07;;;;;;;;;;5110347;28;20028;-62
2021/07/09 03:18:01;;;;;;;7.15;3.97;;;;;;;;;;5091149;28;20050;-65
2021/07/09 03:20:27;;;;;;;7.22;4.30;;;;;;;;;;5109861;28;20539;-62
2021/07/09 03:22:53;;;;;;;8.20;4.10;;;;;;;;;;5110409;28;20472;-62
2021/07/09 03:25:19;;;;;;;7.82;3.55;;;;;;;;;;5109744;28;20079;-62
2021/07/09 03:27:45;;;;;;;9.23;3.90;;;;;;;;;;5110509;28;20030;-62
2021/07/09 03:30:12;;;;;;;8.18;4.03;;;;;;;;;;5108294;28;20032;-63
2021/07/09 03:32:38;;;;;;;5.93;3.47;;;;;;;;;;5092305;28;20578;-62
2021/07/09 03:35:05;;;;;;;7.32;3.65;;;;;;;;;;5110373;28;20034;-62
2021/07/09 03:37:31;;;;;;;6.90;3.47;;;;;;;;;;5092002;28;20027;-62
2021/07/09 03:39:57;;;;;;;6.75;3.40;;;;;;;;;;5091648;28;20081;-62
2021/07/09 03:42:23;;;;;;;5.88;3.40;;;;;;;;;;5090094;28;20024;-62
2021/07/09 03:44:49;;;;;;;7.45;3.53;;;;;;;;;;5110267;28;20026;-62
2021/07/09 03:47:15;;;;;;;8.60;3.80;;;;;;;;;;5091900;28;20031;-62
2021/07/09 03:49:41;;;;;;;6.63;3.22;;;;;;;;;;5092088;28;20039;-62
2021/07/09 03:52:08;;;;;;;6.57;3.30;;;;;;;;;;5110087;28;20376;-62
2021/07/09 03:54:36;;;;;;;5.43;2.90;;;;;;;;;;5089989;28;20091;-63
2021/07/09 03:57:03;;;;;;;8.07;3.45;;;;;;;;;;5092139;28;20106;-63
2021/07/09 03:59:29;;;;;;;5.43;3.15;;;;;;;;;;5091776;28;20019;-62
2021/07/09 04:01:55;;;;;;;5.90;2.88;;;;;;;;;;5110155;28;20059;-63
2021/07/09 04:04:21;;;;;;;5.15;2.83;;;;;;;;;;5108391;28;20116;-64
2021/07/09 04:06:47;;;;;;;6.53;3.08;;;;;;;;;;5109814;28;20102;-63
2021/07/09 04:09:13;;;;;;;7.10;3.20;;;;;;;;;;5109655;28;20427;-62
2021/07/09 04:11:39;;;;;;;6.45;3.50;;;;;;;;;;5110247;28;20129;-63
2021/07/09 04:14:05;;;;;;;6.43;3.13;;;;;;;;;;5110132;28;20097;-62
2021/07/09 04:16:31;;;;;;;6.18;3.50;;;;;;;;;;5089771;28;20476;-63
2021/07/09 04:18:57;;;;;;;6.10;3.70;;;;;;;;;;5110077;28;20019;-63
2021/07/09 04:21:23;;;;;;;15.10;11.05;;;;;;;;;;5091708;28;20127;-63
2021/07/09 04:23:49;;;;;;;14.52;10.00;;;;;;;;;;5109899;28;20055;-63
2021/07/09 04:26:15;;;;;;;8.10;5.50;;;;;;;;;;5090734;28;20145;-70
2021/07/09 04:28:41;;;;;;;7.45;4.13;;;;;;;;;;5108894;28;20023;-63
2021/07/09 04:31:07;;;;;;;7.07;3.58;;;;;;;;;;5109882;28;20032;-63
2021/07/09 04:33:34;;;;;;;6.55;3.20;;;;;;;;;;5109737;28;20102;-63
2021/07/09 04:36:00;;;;;;;5.80;3.55;;;;;;;;;;5091644;28;20468;-63
2021/07/09 04:38:26;;;;;;;6.93;3.00;;;;;;;;;;5094215;28;20115;-71
2021/07/09 04:40:52;;;;;;;6.53;2.95;;;;;;;;;;5093408;28;20055;-63
2021/07/09 04:43:18;;;;;;;5.93;2.90;;;;;;;;;;5095296;28;20306;-63
2021/07/09 04:45:44;;;;;;;6.00;3.25;;;;;;;;;;5113449;28;20471;-63
2021/07/09 04:48:10;;;;;;;6.03;3.20;;;;;;;;;;5113123;28;20030;-63
2021/07/09 04:50:37;;;;;;;5.72;3.00;;;;;;;;;;5113217;28;20108;-63
2021/07/09 04:53:03;;;;;;;5.15;3.00;;;;;;;;;;5093330;28;20032;-63
2021/07/09 04:55:29;;;;;;;6.20;2.92;;;;;;;;;;5113218;28;20024;-63
2021/07/09 04:57:56;;;;;;;8.07;3.10;;;;;;;;;;5113389;28;20031;-63
2021/07/09 05:00:22;;;;;;;4.95;2.90;;;;;;;;;;5112907;28;20031;-63
2021/07/09 05:02:48;;;;;;;6.70;3.05;;;;;;;;;;5093654;28;20063;-70
2021/07/09 05:05:15;;;;;;;7.78;3.10;;;;;;;;;;5093479;28;20472;-63
2021/07/09 05:07:41;;;;;;;6.45;2.95;;;;;;;;;;5111665;28;20027;-64
2021/07/09 05:10:08;;;;;;;5.20;2.90;;;;;;;;;;5110684;28;20023;-64
2021/07/09 05:12:34;;;;;;;5.15;2.97;;;;;;;;;;5111035;28;20088;-66
2021/07/09 05:15:00;;;;;;;5.05;2.90;;;;;;;;;;5110042;28;20032;-70
2021/07/09 05:17:26;;;;;;;5.80;3.00;;;;;;;;;;5091278;28;20057;-64
2021/07/09 05:19:52;;;;;;;5.78;3.10;;;;;;;;;;5092587;28;20490;-64
2021/07/09 05:22:22;;;;;;;7.47;3.03;;;;;;;;;;5093822;28;20118;-63
2021/07/09 05:24:52;;;;;;;5.00;2.50;;;;;;;;;;5112338;28;20070;-63
2021/07/09 05:27:18;;;;;;;5.30;2.65;;;;;;;;;;5092909;28;20038;-64
2021/07/09 05:29:44;;;;;;;4.95;2.70;;;;;;;;;;5112532;28;20027;-63
2021/07/09 05:32:10;;;;;;;5.05;2.58;;;;;;;;;;5094420;28;20024;-63
2021/07/09 05:34:36;;;;;;;4.80;2.53;;;;;;;;;;5112419;28;20349;-63
2021/07/09 05:37:03;;;;;;;5.30;2.55;;;;;;;;;;5093816;28;20029;-63
2021/07/09 05:39:29;;;;;;;6.38;2.72;;;;;;;;;;5092127;28;20020;-63
2021/07/09 05:41:55;;;;;;;5.05;2.60;;;;;;;;;;5112271;28;20190;-63
2021/07/09 05:44:21;;;;;;;5.90;2.35;;;;;;;;;;5112253;28;20027;-63
2021/07/09 05:46:47;;;;;;;5.05;2.50;;;;;;;;;;5112235;28;20076;-63
2021/07/09 05:49:15;;;;;;;6.70;2.70;;;;;;;;;;5111641;28;20027;-63
2021/07/09 05:51:41;;;;;;;5.93;2.88;;;;;;;;;;5110580;28;20092;-68
2021/07/09 05:54:07;;;;;;;5.40;2.50;;;;;;;;;;5111434;28;20073;-63
2021/07/09 05:56:33;;;;;;;5.32;2.50;;;;;;;;;;5112073;28;20406;-63
2021/07/09 05:58:59;;;;;;;6.60;2.55;;;;;;;;;;5111909;28;20034;-63
2021/07/09 06:01:25;;;;;;;6.72;2.72;;;;;;;;;;5111933;28;20110;-63
2021/07/09 06:03:51;;;;;;;6.53;2.75;;;;;;;;;;5110980;28;20055;-68
2021/07/09 06:06:17;;;;;;;5.05;2.38;;;;;;;;;;5110688;28;20066;-66
